Meteo Giornale » Osservazioni meteo Stati Uniti (USA) » Imperial
ore: 10:53 - Osservazioni Meteo Imperial
Lat. 40° 31' N Lon. 101° 37' W Alt. 997 metri s.l.m.
28 °C
Sereno
Temp. 24 Ore
16 °C
33 °C
Nord
5.5 Km/h
Dew point 14 °C
Umidità 42 %
Visibilità 10 Km
Il sole sorge alle ore 06:13
Il sole tramonta alle ore 19:20
| Data e Ora | Cielo e Fenomeni | T °C | DP °C | Um. % | Pres. hPa | Vis. km | Vento km/h | |
|---|---|---|---|---|---|---|---|---|
| Oggi h: 10:53 | Sereno | 28 | 14 | 42 | 1018 | 10 | N 5.5 | |
| Oggi h: 09:53 | Sereno | 26 | 16 | 54 | 1018 | 10 | NO 9.3 | |
| Oggi h: 08:53 | Sereno | 22 | 14 | 60 | 1018 | 10 | N 0 | |
| Oggi h: 07:53 | Sereno | 20 | 15 | 72 | 1018 | 10 | N 5.5 | |
| Oggi h: 06:53 | Sereno | 17 | 15 | 88 | 1017 | 10 | N 0 | |
| Oggi h: 05:53 | Sereno | 16 | 14 | 87 | 1017 | 10 | N 5.5 | |
| Oggi h: 04:53 | Poco Nuvoloso | 17 | 15 | 88 | 1016 | 10 | N 0 | |
| Oggi h: 03:53 | Sereno | 18 | 14 | 77 | 1016 | 10 | O/NO 9.3 | |
| Oggi h: 02:53 | Poco Nuvoloso | 18 | 15 | 82 | 1016 | 10 | S 11.1 | |
| Oggi h: 01:53 | Molto Nuvoloso | 19 | 14 | 72 | 1016 | 10 | S/SO 11.1 | |
| Oggi h: 00:53 | Poco Nuvoloso | 19 | 14 | 72 | 1016 | 10 | SO 7.4 | |
| Ieri h: 23:53 | Poco Nuvoloso | 19 | 15 | 77 | 1016 | 10 | N 5.5 | |
| Ieri h: 22:53 | Nuvoloso | 22 | 14 | 60 | 1015 | 10 | NO 13 | |
| Ieri h: 21:53 | Sereno | 23 | 14 | 56 | 1015 | 10 | S/SE 9.3 | |
| Ieri h: 20:53 | Nuvoloso | 26 | 12 | 41 | 1015 | 10 | O/NO 14.8 | |
| Ieri h: 19:53 | Nuvoloso | 25 | 13 | 47 | 1015 | 10 | N 0 | |
| Ieri h: 18:53 | Sereno | 28 | 11 | 34 | 1014 | 10 | O/NO 18.5 | |
| Ieri h: 17:53 | Sereno | 31 | 15 | 37 | 1014 | 10 | O 9.3 | |
| Ieri h: 16:53 | Sereno | 33 | 14 | 31 | 1013 | 10 | O 13 | |
| Ieri h: 15:53 | Sereno | 33 | 14 | 31 | 1013 | 10 | O/NO 11.1 | |
| Ieri h: 14:53 | Sereno | 33 | 13 | 29 | 1013 | 10 | SO 13 | |
| Ieri h: 13:53 | Sereno | 32 | 11 | 27 | 1013 | 10 | O 11.1 | |
| Ieri h: 12:53 | Sereno | 32 | 13 | 31 | 1014 | 10 | O 14.8 | |
| Ieri h: 11:53 | Sereno | 29 | 16 | 45 | 1014 | 10 | O 7.4 | |



